createdAt,value
2017-09-14T00:00:35.133Z,996.42
2017-09-14T00:01:35.189Z,996.43
2017-09-14T00:02:35.639Z,996.42
2017-09-14T00:03:35.990Z,996.41
2017-09-14T00:04:36.042Z,996.42
2017-09-14T00:05:36.051Z,996.36
2017-09-14T00:06:36.079Z,996.38
2017-09-14T00:07:36.113Z,996.39
2017-09-14T00:08:36.143Z,996.37
2017-09-14T00:09:36.175Z,996.36
2017-09-14T00:10:36.202Z,996.38
2017-09-14T00:11:36.236Z,996.34
2017-09-14T00:12:36.266Z,996.35
2017-09-14T00:13:36.300Z,996.32
2017-09-14T00:14:36.325Z,996.34
2017-09-14T00:15:36.381Z,996.3
2017-09-14T00:16:36.387Z,996.4
2017-09-14T00:17:36.453Z,996.41
2017-09-14T00:18:36.811Z,996.38
2017-09-14T00:19:37.076Z,996.34
2017-09-14T00:20:36.853Z,996.36
2017-09-14T00:21:36.890Z,996.37
2017-09-14T00:22:36.912Z,996.39
2017-09-14T00:23:36.963Z,996.41
2017-09-14T00:24:36.997Z,996.45
2017-09-14T00:25:37.294Z,996.37
2017-09-14T00:26:37.324Z,996.39
2017-09-14T00:27:37.355Z,996.46
2017-09-14T00:28:37.453Z,996.44
2017-09-14T00:29:37.501Z,996.41
2017-09-14T00:30:37.508Z,996.4
2017-09-14T00:31:37.562Z,996.34
2017-09-14T00:32:37.574Z,996.37
2017-09-14T00:33:37.619Z,996.34
2017-09-14T00:34:37.660Z,996.34
2017-09-14T00:35:37.686Z,996.31
2017-09-14T00:36:37.716Z,996.25
2017-09-14T00:37:37.750Z,996.26
2017-09-14T00:38:37.802Z,996.27
2017-09-14T00:39:37.811Z,996.26
2017-09-14T00:40:38.185Z,996.24
2017-09-14T00:41:38.214Z,996.25
2017-09-14T00:42:38.246Z,996.22
2017-09-14T00:43:38.559Z,996.21
2017-09-14T00:44:38.607Z,996.22
2017-09-14T00:45:38.919Z,996.2
2017-09-14T00:46:39.275Z,996.17
2017-09-14T00:47:39.300Z,996.12
2017-09-14T00:48:39.329Z,996.11
2017-09-14T00:49:39.359Z,996.04
2017-09-14T00:50:39.724Z,996.08
2017-09-14T00:51:40.118Z,996
2017-09-14T00:52:40.470Z,995.97
2017-09-14T00:53:40.820Z,996.01
2017-09-14T00:54:40.878Z,996.01
2017-09-14T00:55:40.886Z,995.99
2017-09-14T00:56:40.918Z,996
2017-09-14T00:57:40.948Z,995.97
2017-09-14T00:58:41.006Z,995.92
2017-09-14T00:59:41.310Z,995.95
2017-09-14T01:00:41.335Z,995.99
2017-09-14T01:01:41.387Z,995.97
2017-09-14T01:02:41.464Z,996.09
2017-09-14T01:03:41.476Z,996.06
2017-09-14T01:04:41.486Z,996.05
2017-09-14T01:05:41.870Z,996.08
2017-09-14T01:06:41.909Z,996.09
2017-09-14T01:07:41.925Z,996.09
2017-09-14T01:08:41.951Z,996.08
2017-09-14T01:09:42.004Z,996.15
2017-09-14T01:10:42.013Z,996.07
2017-09-14T01:11:42.065Z,996.14
2017-09-14T01:12:42.086Z,996.09
2017-09-14T01:13:42.136Z,996.08
2017-09-14T01:15:15.270Z,996.1
2017-09-14T01:16:15.295Z,996.09
2017-09-14T01:17:15.301Z,996.11
2017-09-14T01:18:15.261Z,996.04
2017-09-14T01:19:15.300Z,996.03
2017-09-14T01:20:15.316Z,996.04
2017-09-14T01:21:15.354Z,996.05
2017-09-14T01:22:15.390Z,996.04
2017-09-14T01:23:15.407Z,996.06
2017-09-14T01:24:15.445Z,996.05
2017-09-14T01:25:15.490Z,996.03
2017-09-14T01:26:15.505Z,995.98
2017-09-14T01:27:15.534Z,996.02
2017-09-14T01:28:15.584Z,996.01
2017-09-14T01:29:15.586Z,996.01
2017-09-14T01:30:15.618Z,996.03
2017-09-14T01:31:15.649Z,996.03
2017-09-14T01:32:15.678Z,995.96
2017-09-14T01:33:16.086Z,995.95
2017-09-14T01:34:16.113Z,995.93
2017-09-14T01:35:16.143Z,995.95
2017-09-14T01:36:16.177Z,995.85
2017-09-14T01:37:16.583Z,995.88
2017-09-14T01:38:16.617Z,995.91
2017-09-14T01:39:16.643Z,995.85
2017-09-14T01:40:16.678Z,995.87
2017-09-14T01:41:16.708Z,995.86
2017-09-14T01:42:16.739Z,995.97
2017-09-14T01:43:16.766Z,996
2017-09-14T01:44:16.799Z,995.9
2017-09-14T01:45:16.831Z,995.99
2017-09-14T01:46:16.934Z,995.93
2017-09-14T01:47:16.964Z,996.01
2017-09-14T01:48:17.054Z,995.95
2017-09-14T01:49:17.083Z,995.98
2017-09-14T01:50:17.114Z,995.99
2017-09-14T01:51:17.143Z,996.01
2017-09-14T01:52:17.528Z,996.03
2017-09-14T01:53:17.563Z,995.99
2017-09-14T01:54:17.592Z,995.99
2017-09-14T01:55:17.621Z,996.04
2017-09-14T01:56:17.651Z,996.04
2017-09-14T01:57:18.076Z,996.11
2017-09-14T01:58:18.109Z,996.06
2017-09-14T01:59:18.136Z,996.02
2017-09-14T02:00:18.174Z,996
2017-09-14T02:01:18.210Z,996.02
2017-09-14T02:02:18.229Z,996.04
2017-09-14T02:03:18.275Z,995.99
2017-09-14T02:04:18.675Z,995.98
2017-09-14T02:05:18.783Z,995.95
2017-09-14T02:06:18.809Z,995.95
2017-09-14T02:07:18.839Z,995.88
2017-09-14T02:08:18.928Z,995.92
2017-09-14T02:09:18.962Z,995.9
2017-09-14T02:10:18.989Z,995.97
2017-09-14T02:11:19.020Z,995.94
2017-09-14T02:12:19.053Z,995.99
2017-09-14T02:13:19.169Z,996.02
2017-09-14T02:14:19.190Z,996.03
2017-09-14T02:15:19.220Z,996.04
2017-09-14T02:16:19.253Z,996.02
2017-09-14T02:17:19.287Z,996.03
2017-09-14T02:18:19.311Z,995.94
2017-09-14T02:19:19.341Z,996.01
2017-09-14T02:20:19.377Z,995.97
2017-09-14T02:21:19.404Z,996
2017-09-14T02:22:19.435Z,996.01
2017-09-14T02:23:19.525Z,996.03
2017-09-14T02:24:19.560Z,995.99
2017-09-14T02:25:19.593Z,996.01
2017-09-14T02:26:19.627Z,996.01
2017-09-14T02:27:20.001Z,995.92
2017-09-14T02:28:20.039Z,995.97
2017-09-14T02:29:20.438Z,995.95
2017-09-14T02:30:20.466Z,995.96
2017-09-14T02:31:20.499Z,995.9
2017-09-14T02:32:20.531Z,995.9
2017-09-14T02:33:20.559Z,995.84
2017-09-14T02:34:20.595Z,995.84
2017-09-14T02:35:20.622Z,995.8
2017-09-14T02:36:20.655Z,995.79
2017-09-14T02:37:20.683Z,995.82
2017-09-14T02:38:21.102Z,995.74
2017-09-14T02:39:21.512Z,995.63
2017-09-14T02:40:21.592Z,995.58
2017-09-14T02:41:21.621Z,995.45
2017-09-14T02:42:21.649Z,995.45
2017-09-14T02:43:21.682Z,995.32
2017-09-14T02:44:21.711Z,995.3
2017-09-14T02:45:21.746Z,995.25
2017-09-14T02:46:21.776Z,995.18
2017-09-14T02:47:22.202Z,995.22
2017-09-14T02:48:22.321Z,995.33
2017-09-14T02:49:22.347Z,995.43
2017-09-14T02:50:22.383Z,995.47
2017-09-14T02:51:22.804Z,995.34
2017-09-14T02:52:22.831Z,995.34
2017-09-14T02:53:22.863Z,995.34
2017-09-14T02:54:23.252Z,995.32
2017-09-14T02:55:23.288Z,995.37
2017-09-14T02:56:23.315Z,995.34
2017-09-14T02:57:23.715Z,995.41
2017-09-14T02:58:24.114Z,995.39
2017-09-14T02:59:24.145Z,995.41
2017-09-14T03:00:24.223Z,995.38
2017-09-14T03:01:24.309Z,995.37
2017-09-14T03:02:24.793Z,995.34
2017-09-14T03:03:24.818Z,995.32
2017-09-14T03:04:24.850Z,995.24
2017-09-14T03:05:24.878Z,995.28
2017-09-14T03:06:24.912Z,995.24
2017-09-14T03:07:24.945Z,995.2
2017-09-14T03:08:24.973Z,995.31
2017-09-14T03:09:25.064Z,995.27
2017-09-14T03:10:25.095Z,995.21
2017-09-14T03:11:25.123Z,995.21
2017-09-14T03:12:25.152Z,995.25
2017-09-14T03:13:25.188Z,995.23
2017-09-14T03:14:25.596Z,995.23
2017-09-14T03:15:25.627Z,995.25
2017-09-14T03:16:25.693Z,995.19
2017-09-14T03:17:25.719Z,995.16
2017-09-14T03:18:25.750Z,995.12
2017-09-14T03:19:25.792Z,995.09
2017-09-14T03:20:26.172Z,995.09
2017-09-14T03:21:26.202Z,995.12
2017-09-14T03:22:26.611Z,995.17
2017-09-14T03:23:26.638Z,995.19
2017-09-14T03:24:27.041Z,995.25
2017-09-14T03:25:27.064Z,995.3
2017-09-14T03:26:27.101Z,995.22
2017-09-14T03:27:27.130Z,995.27
2017-09-14T03:28:27.160Z,995.27
2017-09-14T03:29:27.188Z,995.23
2017-09-14T03:30:27.603Z,995.18
2017-09-14T03:31:27.632Z,995.17
2017-09-14T03:32:27.664Z,995.17
2017-09-14T03:33:27.694Z,995.12
2017-09-14T03:34:27.720Z,995.17
2017-09-14T03:35:27.757Z,995.16
2017-09-14T03:36:28.154Z,995.18
2017-09-14T03:37:28.184Z,995.11
2017-09-14T03:38:28.221Z,995.12
2017-09-14T03:39:28.249Z,995.14
2017-09-14T03:40:28.276Z,995.13
2017-09-14T03:41:28.385Z,995.16
2017-09-14T03:42:28.734Z,995.17
2017-09-14T03:43:28.766Z,995.17
2017-09-14T03:44:28.799Z,995.22
2017-09-14T03:45:28.874Z,995.37
2017-09-14T03:46:28.906Z,995.45
2017-09-14T03:47:28.934Z,995.47
2017-09-14T03:48:28.963Z,995.47
2017-09-14T03:49:28.996Z,995.49
2017-09-14T03:50:29.402Z,995.56
2017-09-14T03:51:29.430Z,995.48
2017-09-14T03:52:29.462Z,995.61
2017-09-14T03:53:29.492Z,995.58
2017-09-14T03:54:29.895Z,995.67
2017-09-14T03:55:29.922Z,995.69
2017-09-14T03:56:29.953Z,995.67
2017-09-14T03:57:29.983Z,995.61
2017-09-14T03:58:30.014Z,995.56
2017-09-14T03:59:30.432Z,995.61
2017-09-14T04:00:30.462Z,995.56
2017-09-14T04:01:30.833Z,995.59
2017-09-14T04:02:30.860Z,995.74
2017-09-14T04:03:31.295Z,995.8
2017-09-14T04:04:31.320Z,995.73
2017-09-14T04:05:31.353Z,995.63
2017-09-14T04:06:31.379Z,995.58
2017-09-14T04:07:31.483Z,995.61
2017-09-14T04:08:31.535Z,995.63
2017-09-14T04:09:31.543Z,995.72
2017-09-14T04:10:31.569Z,995.85
2017-09-14T04:11:31.601Z,995.96
2017-09-14T04:12:32.002Z,996.06
2017-09-14T04:13:32.031Z,996
2017-09-14T04:14:32.062Z,995.96
2017-09-14T04:15:32.095Z,995.83
2017-09-14T04:16:32.123Z,995.73
2017-09-14T04:17:32.153Z,995.66
2017-09-14T04:18:32.557Z,995.6
2017-09-14T04:19:32.977Z,995.75
2017-09-14T04:20:33.007Z,995.89
2017-09-14T04:21:33.420Z,995.9
2017-09-14T04:22:33.451Z,995.86
2017-09-14T04:23:33.874Z,995.82
2017-09-14T04:24:34.303Z,995.75
2017-09-14T04:25:34.330Z,995.66
2017-09-14T04:26:34.361Z,995.52
2017-09-14T04:27:34.394Z,995.51
2017-09-14T04:28:34.421Z,995.54
2017-09-14T04:29:34.450Z,995.69
2017-09-14T04:30:34.862Z,995.73
2017-09-14T04:31:34.894Z,995.92
2017-09-14T04:32:35.330Z,996
2017-09-14T04:33:35.354Z,996.03
2017-09-14T04:34:35.369Z,995.97
2017-09-14T04:35:35.420Z,996
2017-09-14T04:36:35.450Z,995.88
2017-09-14T04:37:35.478Z,995.73
2017-09-14T04:38:35.867Z,995.52
2017-09-14T04:39:35.903Z,995.36
2017-09-14T04:40:35.932Z,995.13
2017-09-14T04:41:36.351Z,995.05
2017-09-14T04:42:36.372Z,995.18
2017-09-14T04:43:36.413Z,995.25
2017-09-14T04:44:36.438Z,995.35
2017-09-14T04:45:36.467Z,995.37
2017-09-14T04:46:36.496Z,995.34
2017-09-14T04:47:36.512Z,995.21
2017-09-14T04:48:36.556Z,995.15
2017-09-14T04:49:36.969Z,995.35
2017-09-14T04:50:37.368Z,995.66
2017-09-14T04:51:37.402Z,995.72
2017-09-14T04:52:37.481Z,995.64
2017-09-14T04:53:37.559Z,995.52
2017-09-14T04:54:37.598Z,995.38
2017-09-14T04:55:37.628Z,995.07
2017-09-14T04:56:37.658Z,994.9
2017-09-14T04:57:37.690Z,994.91
2017-09-14T04:58:37.723Z,994.99
2017-09-14T04:59:37.752Z,995.01
2017-09-14T05:00:37.784Z,994.97
2017-09-14T05:01:37.814Z,995.07
2017-09-14T05:02:37.956Z,995.11
2017-09-14T05:03:37.939Z,995.17
2017-09-14T05:04:37.965Z,995.2
2017-09-14T05:05:38.067Z,995.29
2017-09-14T05:06:38.099Z,995.41
2017-09-14T05:07:38.129Z,995.55
2017-09-14T05:08:38.158Z,995.7
2017-09-14T05:09:38.193Z,995.73
2017-09-14T05:10:38.222Z,995.87
2017-09-14T05:11:38.251Z,996.11
2017-09-14T05:12:38.279Z,996.23
2017-09-14T05:13:38.337Z,996.26
2017-09-14T05:14:38.345Z,996.18
2017-09-14T05:15:38.377Z,996.01
2017-09-14T05:16:38.769Z,995.63
2017-09-14T05:17:38.794Z,995.17
2017-09-14T05:18:38.825Z,994.88
2017-09-14T05:19:38.856Z,995.03
2017-09-14T05:20:38.887Z,995.37
2017-09-14T05:21:39.301Z,995.44
2017-09-14T05:22:39.331Z,995.47
2017-09-14T05:23:39.362Z,995.43
2017-09-14T05:24:39.394Z,995.43
2017-09-14T05:25:39.426Z,995.43
2017-09-14T05:26:39.457Z,995.49
2017-09-14T05:27:39.494Z,995.63
2017-09-14T05:28:39.524Z,995.78
2017-09-14T05:29:39.929Z,995.8
2017-09-14T05:30:40.350Z,995.7
2017-09-14T05:31:40.380Z,995.62
2017-09-14T05:32:40.413Z,995.47
2017-09-14T05:33:40.440Z,995.42
2017-09-14T05:34:40.469Z,995.47
2017-09-14T05:35:40.503Z,995.6
2017-09-14T05:36:40.540Z,995.82
2017-09-14T05:37:40.572Z,995.84
2017-09-14T05:38:40.595Z,995.79
2017-09-14T05:39:40.630Z,995.85
2017-09-14T05:40:40.655Z,995.87
2017-09-14T05:41:40.692Z,995.87
2017-09-14T05:42:40.722Z,995.75
2017-09-14T05:43:41.106Z,995.64
2017-09-14T05:44:41.135Z,995.61
2017-09-14T05:45:41.535Z,995.66
2017-09-14T05:46:41.645Z,995.71
2017-09-14T05:47:42.047Z,995.68
2017-09-14T05:48:42.079Z,995.72
2017-09-14T05:49:42.112Z,995.66
2017-09-14T05:50:42.142Z,995.67
2017-09-14T05:51:42.172Z,995.76
2017-09-14T05:52:42.202Z,995.74
2017-09-14T05:53:42.267Z,995.77
2017-09-14T05:54:42.338Z,995.71
2017-09-14T05:55:42.368Z,995.67
2017-09-14T05:56:42.395Z,995.67
2017-09-14T05:57:42.436Z,995.69
2017-09-14T05:58:42.457Z,995.76
2017-09-14T05:59:42.492Z,995.68
2017-09-14T06:00:42.526Z,995.57
2017-09-14T06:01:42.551Z,995.52
2017-09-14T06:02:42.583Z,995.59
2017-09-14T06:03:42.616Z,995.64
2017-09-14T06:04:42.733Z,995.73
2017-09-14T06:05:43.132Z,995.8
2017-09-14T06:06:43.251Z,995.88
2017-09-14T06:07:43.281Z,995.97
2017-09-14T06:08:43.316Z,995.97
2017-09-14T06:09:43.345Z,995.96
2017-09-14T06:10:43.379Z,995.91
2017-09-14T06:11:43.409Z,995.79
2017-09-14T06:12:43.698Z,995.79
2017-09-14T06:13:43.731Z,995.95
2017-09-14T06:14:43.762Z,996.04
2017-09-14T06:15:43.794Z,996.16
2017-09-14T06:16:43.822Z,996.23
2017-09-14T06:17:43.853Z,996.27
2017-09-14T06:18:43.882Z,996.27
2017-09-14T06:19:43.921Z,996.1
2017-09-14T06:20:43.950Z,996.09
2017-09-14T06:21:44.419Z,996.13
2017-09-14T06:22:44.444Z,996.11
2017-09-14T06:23:44.476Z,996.05
2017-09-14T06:24:44.495Z,996.02
2017-09-14T06:25:44.539Z,995.99
2017-09-14T06:26:44.681Z,996.03
2017-09-14T06:27:44.717Z,996.09
2017-09-14T06:28:44.749Z,996.14
2017-09-14T06:29:44.784Z,996.21
2017-09-14T06:30:44.802Z,996.21
2017-09-14T06:31:45.217Z,996.1
2017-09-14T06:32:45.246Z,996.07
2017-09-14T06:33:45.274Z,995.83
2017-09-14T06:34:45.646Z,995.85
2017-09-14T06:35:45.673Z,995.88
2017-09-14T06:36:45.708Z,995.89
2017-09-14T06:37:45.752Z,995.99
2017-09-14T06:38:45.770Z,996.04
2017-09-14T06:39:45.801Z,996.07
2017-09-14T06:40:45.832Z,995.98
2017-09-14T06:41:45.849Z,995.92
2017-09-14T06:42:45.893Z,995.99
2017-09-14T06:43:45.926Z,995.99
2017-09-14T06:44:46.420Z,996.05
2017-09-14T06:45:46.453Z,996.02
2017-09-14T06:46:46.478Z,996.04
2017-09-14T06:47:46.515Z,996.05
2017-09-14T06:48:46.602Z,996.14
2017-09-14T06:49:47.030Z,996.2
2017-09-14T06:50:47.062Z,996.23
2017-09-14T06:51:47.101Z,996.22
2017-09-14T06:52:47.532Z,996.23
2017-09-14T06:53:47.965Z,996.19
2017-09-14T06:54:48.365Z,996.15
2017-09-14T06:55:48.396Z,996.07
2017-09-14T06:56:48.433Z,996.14
2017-09-14T06:57:48.854Z,996.15
2017-09-14T06:58:48.880Z,996.1
2017-09-14T06:59:48.911Z,996.12
2017-09-14T07:00:49.633Z,996.14
2017-09-14T07:01:49.769Z,996.06
2017-09-14T07:02:49.694Z,996.09
2017-09-14T07:03:50.215Z,996.01
2017-09-14T07:04:50.266Z,995.94
2017-09-14T07:05:50.311Z,996.03
2017-09-14T07:06:50.768Z,995.95
2017-09-14T07:07:50.799Z,995.9
2017-09-14T07:08:50.933Z,995.94
2017-09-14T07:09:50.863Z,996.08
2017-09-14T07:10:51.248Z,996.19
2017-09-14T07:11:51.001Z,996.2
2017-09-14T07:12:51.038Z,996.14
2017-09-14T07:13:51.063Z,996.12
2017-09-14T07:14:51.098Z,996.16
2017-09-14T07:15:51.130Z,996.22
2017-09-14T07:16:51.163Z,996.18
2017-09-14T07:17:51.333Z,996.07
2017-09-14T07:18:51.367Z,996
2017-09-14T07:19:51.405Z,995.93
2017-09-14T07:20:51.429Z,995.89
2017-09-14T07:21:51.461Z,995.78
2017-09-14T07:22:51.494Z,995.78
2017-09-14T07:23:51.531Z,995.64
2017-09-14T07:24:51.553Z,995.62
2017-09-14T07:25:52.210Z,995.68
2017-09-14T07:26:52.243Z,995.74
2017-09-14T07:27:52.273Z,995.85
2017-09-14T07:28:52.299Z,996.05
2017-09-14T07:29:52.350Z,996.17
2017-09-14T07:30:52.374Z,996.32
2017-09-14T07:31:52.395Z,996.49
2017-09-14T07:32:52.429Z,996.65
2017-09-14T07:33:52.468Z,996.75
2017-09-14T07:34:52.504Z,996.83
2017-09-14T07:35:52.923Z,996.84
2017-09-14T07:36:52.958Z,996.82
2017-09-14T07:37:52.998Z,996.88
2017-09-14T07:38:53.033Z,996.87
2017-09-14T07:39:53.056Z,996.82
2017-09-14T07:40:53.091Z,996.78
2017-09-14T07:41:53.120Z,996.71
2017-09-14T07:42:53.159Z,996.7
2017-09-14T07:43:53.183Z,996.58
2017-09-14T07:44:53.213Z,996.49
2017-09-14T07:45:53.251Z,996.57
2017-09-14T07:46:53.269Z,996.57
2017-09-14T07:47:53.384Z,996.54
2017-09-14T07:48:53.828Z,996.5
2017-09-14T07:49:53.860Z,996.65
2017-09-14T07:50:53.904Z,996.56
2017-09-14T07:51:54.049Z,996.46
2017-09-14T07:52:54.084Z,996.46
2017-09-14T07:53:54.098Z,996.62
2017-09-14T07:54:54.150Z,996.67
2017-09-14T07:55:54.177Z,996.67
2017-09-14T07:56:54.686Z,996.54
2017-09-14T07:57:54.697Z,996.67
2017-09-14T07:58:54.726Z,996.65
2017-09-14T07:59:54.767Z,996.75
2017-09-14T08:00:55.306Z,996.74
2017-09-14T08:01:55.334Z,996.67
2017-09-14T08:02:55.378Z,996.74
2017-09-14T08:03:55.384Z,996.7
2017-09-14T08:04:55.431Z,996.77
2017-09-14T08:05:55.470Z,996.77
2017-09-14T08:06:55.502Z,996.77
2017-09-14T08:07:55.534Z,996.72
2017-09-14T08:08:55.566Z,996.65
2017-09-14T08:09:55.599Z,996.67
2017-09-14T08:10:55.631Z,996.64
2017-09-14T08:11:55.665Z,996.68
2017-09-14T08:12:55.727Z,996.81
2017-09-14T08:13:55.731Z,996.89
2017-09-14T08:14:55.765Z,996.91
2017-09-14T08:15:55.780Z,997.02
2017-09-14T08:16:55.827Z,997
2017-09-14T08:17:55.866Z,996.95
2017-09-14T08:18:55.894Z,996.97
2017-09-14T08:19:56.356Z,996.97
2017-09-14T08:20:56.807Z,996.86
2017-09-14T08:21:56.836Z,996.94
2017-09-14T08:22:56.877Z,997.06
2017-09-14T08:23:56.908Z,997.02
2017-09-14T08:24:56.942Z,997
2017-09-14T08:25:56.977Z,997
2017-09-14T08:26:57.012Z,997.12
2017-09-14T08:27:57.037Z,997.03
2017-09-14T08:28:57.072Z,997.05
2017-09-14T08:29:57.094Z,997.06
2017-09-14T08:30:57.134Z,997.06
2017-09-14T08:31:57.172Z,997.09
2017-09-14T08:32:57.198Z,997.06
2017-09-14T08:33:57.233Z,997.07
2017-09-14T08:34:57.269Z,997.02
2017-09-14T08:35:57.300Z,996.95
2017-09-14T08:36:57.331Z,996.94
2017-09-14T08:37:57.376Z,996.94
2017-09-14T08:38:57.410Z,996.93
2017-09-14T08:39:57.432Z,996.86
2017-09-14T08:40:57.468Z,996.82
2017-09-14T08:41:57.580Z,996.93
2017-09-14T08:42:57.694Z,996.93
2017-09-14T08:43:57.726Z,996.83
2017-09-14T08:44:58.125Z,996.81
2017-09-14T08:45:58.163Z,996.82
2017-09-14T08:46:58.200Z,996.84
2017-09-14T08:47:58.224Z,996.87
2017-09-14T08:48:58.262Z,996.84
2017-09-14T08:49:58.314Z,996.8
2017-09-14T08:50:58.342Z,996.72
2017-09-14T08:51:58.372Z,996.7
2017-09-14T08:52:58.394Z,996.79
2017-09-14T08:53:58.427Z,996.83
2017-09-14T08:54:58.463Z,996.91
2017-09-14T08:55:58.493Z,996.99
2017-09-14T08:56:58.525Z,997.12
2017-09-14T08:57:58.564Z,997.15
2017-09-14T08:58:58.593Z,997.16
2017-09-14T08:59:58.627Z,997.21
2017-09-14T09:00:58.678Z,997.21
2017-09-14T09:01:58.689Z,997.17
2017-09-14T09:02:58.732Z,997.08
2017-09-14T09:03:58.761Z,997.05
2017-09-14T09:04:58.785Z,997
2017-09-14T09:05:58.812Z,996.92
2017-09-14T09:06:58.864Z,996.87
2017-09-14T09:07:58.903Z,996.97
2017-09-14T09:08:58.932Z,996.97
2017-09-14T09:09:58.974Z,996.94
2017-09-14T09:10:59.504Z,996.95
2017-09-14T09:11:59.538Z,996.93
2017-09-14T09:12:59.604Z,996.94
2017-09-14T09:13:59.605Z,996.96
2017-09-14T09:14:59.631Z,996.99
2017-09-14T09:15:59.671Z,996.97
2017-09-14T09:16:59.703Z,996.97
2017-09-14T09:18:00.415Z,997
2017-09-14T09:19:00.458Z,996.97
2017-09-14T09:20:00.480Z,996.97
2017-09-14T09:21:00.519Z,996.93
2017-09-14T09:22:00.971Z,996.91
2017-09-14T09:23:01.151Z,996.91
2017-09-14T09:24:01.162Z,996.91
2017-09-14T09:25:01.290Z,996.96
2017-09-14T09:26:01.247Z,996.95
2017-09-14T09:27:01.280Z,996.98
2017-09-14T09:28:01.359Z,996.99
2017-09-14T09:29:01.366Z,997.07
2017-09-14T09:30:01.400Z,997.1
2017-09-14T09:31:01.443Z,997.17
2017-09-14T09:32:01.532Z,997.16
2017-09-14T09:33:01.999Z,997.21
2017-09-14T09:34:02.037Z,997.28
2017-09-14T09:35:02.064Z,997.31
2017-09-14T09:36:02.103Z,997.31
2017-09-14T09:37:02.174Z,997.28
2017-09-14T09:38:02.243Z,997.16
2017-09-14T09:39:02.236Z,997.32
2017-09-14T09:40:02.272Z,997.31
2017-09-14T09:41:02.287Z,997.28
2017-09-14T09:42:02.394Z,997.3
2017-09-14T09:43:02.430Z,997.33
2017-09-14T09:44:02.463Z,997.34
2017-09-14T09:45:02.608Z,997.47
2017-09-14T09:46:02.636Z,997.52
2017-09-14T09:47:02.805Z,997.54
2017-09-14T09:48:02.906Z,997.5
2017-09-14T09:49:02.938Z,997.5
2017-09-14T09:50:02.956Z,997.49
2017-09-14T09:51:03.494Z,997.57
2017-09-14T09:52:03.512Z,997.59
2017-09-14T09:53:03.565Z,997.61
2017-09-14T09:54:03.635Z,997.5
2017-09-14T09:55:04.606Z,997.46
2017-09-14T09:56:04.657Z,997.39
2017-09-14T09:57:04.631Z,997.4
2017-09-14T09:58:04.644Z,997.37
2017-09-14T09:59:04.665Z,997.37
2017-09-14T10:00:04.721Z,997.4
2017-09-14T10:01:04.736Z,997.47
2017-09-14T10:02:04.765Z,997.52
2017-09-14T10:03:04.796Z,997.52
2017-09-14T10:04:04.826Z,997.53
2017-09-14T10:05:04.926Z,997.4
2017-09-14T10:06:04.897Z,997.35
2017-09-14T10:07:04.939Z,997.36
2017-09-14T10:08:04.962Z,997.4
2017-09-14T10:09:04.995Z,997.46
2017-09-14T10:10:05.101Z,997.5
2017-09-14T10:11:05.057Z,997.53
2017-09-14T10:12:05.468Z,997.55
2017-09-14T10:13:05.486Z,997.61
2017-09-14T10:14:05.517Z,997.68
2017-09-14T10:15:05.561Z,997.7
2017-09-14T10:16:05.598Z,997.58
2017-09-14T10:17:05.620Z,997.46
2017-09-14T10:18:05.671Z,997.35
2017-09-14T10:19:05.734Z,997.32
2017-09-14T10:20:05.735Z,997.16
2017-09-14T10:21:06.189Z,997.12
2017-09-14T10:22:06.340Z,997.04
2017-09-14T10:23:06.400Z,997.09
2017-09-14T10:24:06.554Z,997.13
2017-09-14T10:25:06.589Z,997.28
2017-09-14T10:26:06.617Z,997.31
2017-09-14T10:27:06.646Z,997.42
2017-09-14T10:28:06.687Z,997.4
2017-09-14T10:29:06.702Z,997.44
2017-09-14T10:30:07.216Z,997.51
2017-09-14T10:31:07.250Z,997.58
2017-09-14T10:32:07.287Z,997.61
2017-09-14T10:33:07.325Z,997.59
2017-09-14T10:34:07.413Z,997.55
2017-09-14T10:35:07.436Z,997.46
2017-09-14T10:36:07.468Z,997.39
2017-09-14T10:37:07.530Z,997.27
2017-09-14T10:38:07.534Z,997.17
2017-09-14T10:39:07.567Z,997.13
2017-09-14T10:40:07.950Z,997.14
2017-09-14T10:41:08.001Z,997.15
2017-09-14T10:42:08.014Z,997.12
2017-09-14T10:43:08.050Z,997.37
2017-09-14T10:44:08.090Z,997.34
2017-09-14T10:45:08.517Z,997.03
2017-09-14T10:46:08.534Z,997.07
2017-09-14T10:47:08.580Z,997.05
2017-09-14T10:48:08.689Z,997.01
2017-09-14T10:49:08.712Z,996.93
2017-09-14T10:50:08.993Z,996.92
2017-09-14T10:51:09.017Z,996.96
2017-09-14T10:52:09.647Z,997.03
2017-09-14T10:53:09.483Z,997.25
2017-09-14T10:54:09.514Z,997.31
2017-09-14T10:55:09.559Z,997.4
2017-09-14T10:56:09.586Z,997.36
2017-09-14T10:57:10.021Z,997.42
2017-09-14T10:58:10.050Z,997.52
2017-09-14T10:59:10.292Z,997.52
2017-09-14T11:00:10.138Z,997.55
2017-09-14T11:01:10.160Z,997.51
2017-09-14T11:02:10.365Z,997.61
2017-09-14T11:03:10.803Z,997.69
2017-09-14T11:04:11.270Z,997.72
2017-09-14T11:05:11.375Z,997.62
2017-09-14T11:06:11.398Z,997.58
2017-09-14T11:07:11.430Z,997.38
2017-09-14T11:08:11.468Z,997.31
2017-09-14T11:09:11.505Z,997.32
2017-09-14T11:10:11.557Z,997.24
2017-09-14T11:11:11.561Z,997.3
2017-09-14T11:12:11.980Z,997.25
2017-09-14T11:13:12.143Z,997.2
2017-09-14T11:14:12.159Z,997.36
2017-09-14T11:15:12.193Z,997.47
2017-09-14T11:16:12.223Z,997.5
2017-09-14T11:17:12.696Z,997.65
2017-09-14T11:18:12.725Z,997.73
2017-09-14T11:19:12.757Z,997.78
2017-09-14T11:20:12.993Z,997.74
2017-09-14T11:21:12.822Z,997.67
2017-09-14T11:22:13.266Z,997.61
2017-09-14T11:23:13.312Z,997.6
2017-09-14T11:24:13.330Z,997.58
2017-09-14T11:25:13.764Z,997.57
2017-09-14T11:26:13.805Z,997.56
2017-09-14T11:27:13.913Z,997.47
2017-09-14T11:28:13.941Z,997.48
2017-09-14T11:29:13.984Z,997.64
2017-09-14T11:30:14.012Z,997.74
2017-09-14T11:31:14.455Z,997.76
2017-09-14T11:32:14.489Z,997.71
2017-09-14T11:33:14.523Z,997.71
2017-09-14T11:34:14.551Z,997.75
2017-09-14T11:35:14.585Z,997.72
2017-09-14T11:36:14.617Z,997.72
2017-09-14T11:37:14.630Z,997.65
2017-09-14T11:38:14.741Z,997.51
2017-09-14T11:39:14.711Z,997.43
2017-09-14T11:40:14.747Z,997.35
2017-09-14T11:41:14.793Z,997.39
2017-09-14T11:42:14.819Z,997.49
2017-09-14T11:43:14.849Z,997.64
2017-09-14T11:44:15.297Z,997.6
2017-09-14T11:45:16.051Z,997.63
2017-09-14T11:46:16.081Z,997.6
2017-09-14T11:47:16.124Z,997.58
2017-09-14T11:48:16.150Z,997.6
2017-09-14T11:49:16.186Z,997.65
2017-09-14T11:50:16.365Z,997.58
2017-09-14T11:51:16.249Z,997.48
2017-09-14T11:52:16.697Z,997.41
2017-09-14T11:53:16.733Z,997.33
2017-09-14T11:54:17.230Z,997.25
2017-09-14T11:55:17.797Z,997.18
2017-09-14T11:56:17.830Z,997.18
2017-09-14T11:57:17.865Z,997.14
2017-09-14T11:58:17.938Z,997.25
2017-09-14T11:59:17.971Z,997.43
2017-09-14T12:00:18.006Z,997.47
2017-09-14T12:01:18.024Z,997.45
2017-09-14T12:02:18.101Z,997.46
2017-09-14T12:03:18.122Z,997.49
2017-09-14T12:04:18.152Z,997.53
2017-09-14T12:05:18.195Z,997.56
2017-09-14T12:06:18.345Z,997.63
2017-09-14T12:07:18.461Z,997.59
2017-09-14T12:08:18.920Z,997.51
2017-09-14T12:09:18.984Z,997.4
2017-09-14T12:10:19.015Z,997.39
2017-09-14T12:11:19.490Z,997.5
2017-09-14T12:12:19.537Z,997.35
2017-09-14T12:13:20.059Z,997.28
2017-09-14T12:14:20.103Z,997.15
2017-09-14T12:15:20.141Z,997.13
2017-09-14T12:16:20.166Z,997.02
2017-09-14T12:17:20.292Z,997.16
2017-09-14T12:18:20.334Z,997.11
2017-09-14T12:19:20.357Z,997.21
2017-09-14T12:20:21.004Z,997.22
2017-09-14T12:21:21.034Z,997.31
2017-09-14T12:22:21.069Z,997.47
2017-09-14T12:23:21.107Z,997.37
2017-09-14T12:24:21.254Z,997.36
2017-09-14T12:25:21.288Z,997.41
2017-09-14T12:26:21.604Z,997.46
2017-09-14T12:27:21.642Z,997.4
2017-09-14T12:28:21.684Z,997.5
2017-09-14T12:29:21.724Z,997.6
2017-09-14T12:30:21.754Z,997.6
2017-09-14T12:31:21.803Z,997.56
2017-09-14T12:32:21.829Z,997.56
2017-09-14T12:33:22.318Z,997.63